createdAt,value
2023-04-13T00:04:31.847Z,1.20
2023-04-13T00:07:02.973Z,0.70
2023-04-13T00:09:31.368Z,1.10
2023-04-13T00:11:59.287Z,1.00
2023-04-13T00:14:28.709Z,0.85
2023-04-13T00:16:56.884Z,0.90
2023-04-13T00:19:24.558Z,1.20
2023-04-13T00:21:55.702Z,1.30
2023-04-13T00:24:24.586Z,1.00
2023-04-13T00:26:54.818Z,0.95
2023-04-13T00:29:22.632Z,0.98
2023-04-13T00:31:51.006Z,0.90
2023-04-13T00:34:22.056Z,1.15
2023-04-13T00:36:51.129Z,1.20
2023-04-13T00:39:23.392Z,1.52
2023-04-13T00:41:51.959Z,1.10
2023-04-13T00:44:20.235Z,1.00
2023-04-13T00:46:49.344Z,1.23
2023-04-13T00:49:17.592Z,1.77
2023-04-13T00:51:45.616Z,1.27
2023-04-13T00:54:20.010Z,1.33
2023-04-13T00:56:54.911Z,1.38
2023-04-13T00:59:23.484Z,1.23
2023-04-13T01:01:56.592Z,1.60
2023-04-13T01:04:25.835Z,1.38
2023-04-13T01:07:12.455Z,1.45
2023-04-13T01:09:45.528Z,1.33
2023-04-13T01:12:18.568Z,1.73
2023-04-13T01:14:51.130Z,1.23
2023-04-13T01:17:25.864Z,1.40
2023-04-13T01:20:08.804Z,1.42
2023-04-13T01:22:38.870Z,1.70
2023-04-13T01:25:18.395Z,1.48
2023-04-13T01:27:58.269Z,1.42
2023-04-13T01:30:28.667Z,1.30
2023-04-13T01:32:58.910Z,1.30
2023-04-13T01:35:28.759Z,1.20
2023-04-13T01:37:58.255Z,1.50
2023-04-13T01:40:27.737Z,1.25
2023-04-13T01:42:57.675Z,1.27
2023-04-13T01:45:41.277Z,1.40
2023-04-13T01:48:36.145Z,1.60
2023-04-13T01:51:26.328Z,1.23
2023-04-13T01:54:02.680Z,1.23
2023-04-13T01:56:30.504Z,1.50
2023-04-13T01:59:05.904Z,1.70
2023-04-13T02:01:33.854Z,1.27
2023-04-13T02:04:03.108Z,1.55
2023-04-13T02:06:32.257Z,1.70
2023-04-13T02:09:04.619Z,2.13
2023-04-13T02:11:33.508Z,1.40
2023-04-13T02:14:04.203Z,1.50
2023-04-13T02:16:32.490Z,1.60
2023-04-13T02:19:02.288Z,1.15
2023-04-13T02:21:31.273Z,1.70
2023-04-13T02:23:58.979Z,1.52
2023-04-13T02:26:27.613Z,1.10
2023-04-13T02:28:59.615Z,1.30
2023-04-13T02:31:27.447Z,1.45
2023-04-13T02:33:54.983Z,1.33
2023-04-13T02:36:25.057Z,1.30
2023-04-13T02:39:00.878Z,1.33
2023-04-13T02:41:31.390Z,1.27
2023-04-13T02:43:59.940Z,1.73
2023-04-13T02:46:32.762Z,1.35
2023-04-13T02:51:49.615Z,1.20
2023-04-13T02:54:30.327Z,1.48
2023-04-13T02:56:58.232Z,1.92
2023-04-13T02:59:26.849Z,1.80
2023-04-13T03:01:59.070Z,2.05
2023-04-13T03:04:32.625Z,1.83
2023-04-13T03:07:05.190Z,1.90
2023-04-13T03:09:34.718Z,2.55
2023-04-13T03:12:02.992Z,2.35
2023-04-13T03:14:33.234Z,2.80
2023-04-13T03:17:08.071Z,2.10
2023-04-13T03:19:39.324Z,2.22
2023-04-13T03:22:08.605Z,2.65
2023-04-13T03:24:41.777Z,2.80
2023-04-13T03:27:11.510Z,2.90
2023-04-13T03:29:44.789Z,2.97
2023-04-13T03:32:19.837Z,2.55
2023-04-13T03:34:52.158Z,2.78
2023-04-13T03:37:32.962Z,2.55
2023-04-13T03:40:11.821Z,3.05
2023-04-13T03:42:50.128Z,2.60
2023-04-13T03:45:19.307Z,3.05
2023-04-13T03:47:48.649Z,2.20
2023-04-13T03:50:19.518Z,2.30
2023-04-13T03:52:49.157Z,2.00
2023-04-13T03:55:18.412Z,2.45
2023-04-13T03:57:50.109Z,2.72
2023-04-13T04:00:22.829Z,2.40
2023-04-13T04:03:04.821Z,2.20
2023-04-13T04:05:42.357Z,3.22
2023-04-13T04:08:11.204Z,3.33
2023-04-13T04:10:38.996Z,2.90
2023-04-13T04:13:06.737Z,2.70
2023-04-13T04:15:42.240Z,3.42
2023-04-13T04:18:10.718Z,2.83
2023-04-13T04:20:40.371Z,3.47
2023-04-13T04:23:14.272Z,3.92
2023-04-13T04:25:54.068Z,4.15
2023-04-13T04:28:23.506Z,4.78
2023-04-13T04:30:54.973Z,4.97
2023-04-13T04:33:25.283Z,4.95
2023-04-13T04:35:55.125Z,5.07
2023-04-13T04:38:30.913Z,5.65
2023-04-13T04:41:02.424Z,5.85
2023-04-13T04:43:30.526Z,6.13
2023-04-13T04:45:58.902Z,6.45
2023-04-13T04:48:27.559Z,7.15
2023-04-13T04:51:00.223Z,7.25
2023-04-13T04:53:33.422Z,7.78
2023-04-13T04:58:58.588Z,7.60
2023-04-13T05:01:36.966Z,8.23
2023-04-13T05:04:10.933Z,7.90
2023-04-13T05:06:41.773Z,8.23
2023-04-13T05:09:15.163Z,9.13
2023-04-13T05:11:49.628Z,8.40
2023-04-13T05:14:22.416Z,8.50
2023-04-13T05:16:51.614Z,9.00
2023-04-13T05:19:28.526Z,8.52
2023-04-13T05:22:11.950Z,7.93
2023-04-13T05:24:47.633Z,7.95
2023-04-13T05:29:49.336Z,6.40
2023-04-13T05:32:23.310Z,7.20
2023-04-13T05:34:54.143Z,7.55
2023-04-13T05:37:25.277Z,7.20
2023-04-13T05:39:54.569Z,6.72
2023-04-13T05:42:29.673Z,7.03
2023-04-13T05:44:57.572Z,6.82
2023-04-13T05:47:27.504Z,6.97
2023-04-13T05:50:00.635Z,7.43
2023-04-13T05:52:28.822Z,6.85
2023-04-13T05:54:58.382Z,6.78
2023-04-13T05:57:27.948Z,7.13
2023-04-13T05:59:57.771Z,7.65
2023-04-13T06:02:31.569Z,7.10
2023-04-13T06:04:59.482Z,7.53
2023-04-13T06:07:28.289Z,7.47
2023-04-13T06:09:56.021Z,8.45
2023-04-13T06:12:24.153Z,8.80
2023-04-13T06:14:53.233Z,8.05
2023-04-13T06:17:20.782Z,8.02
2023-04-13T06:19:51.823Z,7.38
2023-04-13T06:22:19.796Z,7.20
2023-04-13T06:24:48.749Z,7.10
2023-04-13T06:27:17.526Z,7.80
2023-04-13T06:29:48.719Z,7.15
2023-04-13T06:34:49.139Z,5.95
2023-04-13T06:37:20.232Z,6.50
2023-04-13T06:39:51.804Z,6.65
2023-04-13T06:42:19.898Z,7.18
2023-04-13T06:45:15.101Z,6.55
2023-04-13T06:47:45.052Z,5.80
2023-04-13T06:50:15.766Z,6.00
2023-04-13T06:52:45.375Z,6.00
2023-04-13T06:55:14.600Z,5.25
2023-04-13T06:57:42.892Z,4.75
2023-04-13T07:00:25.933Z,5.00
2023-04-13T07:02:56.956Z,4.88
2023-04-13T07:05:25.587Z,4.97
2023-04-13T07:07:55.110Z,4.82
2023-04-13T07:10:23.799Z,4.60
2023-04-13T07:12:53.424Z,4.32
2023-04-13T07:15:24.134Z,4.60
2023-04-13T07:17:52.712Z,4.35
2023-04-13T07:20:20.839Z,4.65
2023-04-13T07:22:51.793Z,5.35
2023-04-13T07:25:21.937Z,5.95
2023-04-13T07:27:50.878Z,7.10
2023-04-13T07:30:20.095Z,6.88
2023-04-13T07:32:52.116Z,8.07
2023-04-13T07:35:23.281Z,7.95
2023-04-13T07:37:54.384Z,8.55
2023-04-13T07:40:24.220Z,8.60
2023-04-13T07:42:56.448Z,8.25
2023-04-13T07:45:26.392Z,8.88
2023-04-13T07:47:54.868Z,9.15
2023-04-13T07:50:23.811Z,9.38
2023-04-13T07:52:52.799Z,8.68
2023-04-13T07:55:23.836Z,7.90
2023-04-13T07:57:53.759Z,7.05
2023-04-13T08:00:21.503Z,7.55
2023-04-13T08:02:52.321Z,7.13
2023-04-13T08:05:24.214Z,7.15
2023-04-13T08:07:53.208Z,6.38
2023-04-13T08:10:21.000Z,5.47
2023-04-13T08:12:49.817Z,6.38
2023-04-13T08:15:20.397Z,5.25
2023-04-13T08:17:49.860Z,5.70
2023-04-13T08:20:22.005Z,4.70
2023-04-13T08:22:52.336Z,4.75
2023-04-13T08:25:21.884Z,4.70
2023-04-13T08:27:51.165Z,5.00
2023-04-13T08:30:19.993Z,5.47
2023-04-13T08:32:58.667Z,4.32
2023-04-13T08:35:29.529Z,4.45
2023-04-13T08:38:00.173Z,3.70
2023-04-13T08:40:33.353Z,4.03
2023-04-13T08:43:02.091Z,3.78
2023-04-13T08:45:37.035Z,3.78
2023-04-13T08:48:05.391Z,3.65
2023-04-13T08:50:37.537Z,3.15
2023-04-13T08:53:08.508Z,3.08
2023-04-13T08:55:38.057Z,2.15
2023-04-13T08:58:06.582Z,2.20
2023-04-13T09:00:36.528Z,2.30
2023-04-13T09:03:10.389Z,1.95
2023-04-13T09:08:13.696Z,1.40
2023-04-13T09:10:44.844Z,1.80
2023-04-13T09:13:13.287Z,2.03
2023-04-13T09:15:48.696Z,1.92
2023-04-13T09:18:36.672Z,2.97
2023-04-13T09:21:10.137Z,2.38
2023-04-13T09:23:38.232Z,2.63
2023-04-13T09:26:09.946Z,2.95
2023-04-13T09:28:50.752Z,2.20
2023-04-13T09:31:20.169Z,2.60
2023-04-13T09:33:49.218Z,2.38
2023-04-13T09:36:19.117Z,3.15
2023-04-13T09:38:54.553Z,3.13
2023-04-13T09:41:51.661Z,3.10
2023-04-13T09:44:21.281Z,3.03
2023-04-13T09:46:59.569Z,3.67
2023-04-13T09:49:37.856Z,3.45
2023-04-13T09:52:07.672Z,3.08
2023-04-13T09:54:36.218Z,2.70
2023-04-13T09:57:05.182Z,2.28
2023-04-13T09:59:33.689Z,2.67
2023-04-13T10:02:03.770Z,2.63
2023-04-13T10:04:31.821Z,2.30
2023-04-13T10:06:59.803Z,2.58
2023-04-13T10:09:27.458Z,2.15
2023-04-13T10:11:57.727Z,2.13
2023-04-13T10:14:27.506Z,2.00
2023-04-13T10:17:13.823Z,2.90
2023-04-13T10:19:44.421Z,2.95
2023-04-13T10:24:42.467Z,2.95
2023-04-13T10:27:17.713Z,2.67
2023-04-13T10:29:45.582Z,3.20
2023-04-13T10:32:24.044Z,2.80
2023-04-13T10:34:53.511Z,2.63
2023-04-13T10:37:29.222Z,2.58
2023-04-13T10:40:09.421Z,2.90
2023-04-13T10:42:51.730Z,2.00
2023-04-13T10:45:26.526Z,2.53
2023-04-13T10:47:55.649Z,1.98
2023-04-13T10:50:24.913Z,2.35
2023-04-13T10:53:02.108Z,2.90
2023-04-13T10:55:31.903Z,2.33
2023-04-13T10:58:00.863Z,2.70
2023-04-13T11:00:44.679Z,2.40
2023-04-13T11:03:15.684Z,3.00
2023-04-13T11:05:47.698Z,2.92
2023-04-13T11:08:21.415Z,2.42
2023-04-13T11:10:53.887Z,2.33
2023-04-13T11:13:22.192Z,2.67
2023-04-13T11:15:54.351Z,3.10
2023-04-13T11:18:27.180Z,2.53
2023-04-13T11:20:55.882Z,2.28
2023-04-13T11:23:24.879Z,2.03
2023-04-13T11:25:58.332Z,2.42
2023-04-13T11:28:27.245Z,2.88
2023-04-13T11:30:56.553Z,1.90
2023-04-13T11:33:25.155Z,1.80
2023-04-13T11:35:53.224Z,2.05
2023-04-13T11:38:20.961Z,2.00
2023-04-13T11:41:15.851Z,1.80
2023-04-13T11:43:48.197Z,1.98
2023-04-13T11:46:17.284Z,2.03
2023-04-13T11:48:45.193Z,2.03
2023-04-13T11:51:13.049Z,2.20
2023-04-13T11:53:41.448Z,2.53
2023-04-13T11:56:13.692Z,2.13
2023-04-13T11:58:44.672Z,1.60
2023-04-13T12:01:20.413Z,2.72
2023-04-13T12:04:04.502Z,2.03
2023-04-13T12:06:24.391Z,2.33
2023-04-13T12:14:10.192Z,1.90
2023-04-13T12:19:15.634Z,1.80
2023-04-13T12:21:55.862Z,1.85
2023-04-13T12:24:33.351Z,1.65
2023-04-13T12:29:39.701Z,1.30
2023-04-13T12:32:15.121Z,1.60
2023-04-13T12:34:43.965Z,1.08
2023-04-13T12:37:20.338Z,1.55
2023-04-13T12:40:01.206Z,1.77
2023-04-13T12:42:29.183Z,1.45
2023-04-13T12:45:00.881Z,1.83
2023-04-13T12:47:28.738Z,2.30
2023-04-13T12:50:20.119Z,1.65
2023-04-13T12:52:50.977Z,1.35
2023-04-13T12:55:19.681Z,1.90
2023-04-13T12:57:55.551Z,1.98
2023-04-13T13:00:24.393Z,1.58
2023-04-13T13:03:06.137Z,1.50
2023-04-13T13:05:38.538Z,1.40
2023-04-13T13:08:07.680Z,1.58
2023-04-13T13:10:36.440Z,1.63
2023-04-13T13:13:04.801Z,1.50
2023-04-13T13:15:33.069Z,1.52
2023-04-13T13:18:04.042Z,1.75
2023-04-13T13:20:34.014Z,1.77
2023-04-13T13:23:01.759Z,1.92
2023-04-13T13:25:32.564Z,1.90
2023-04-13T13:30:33.478Z,1.65
2023-04-13T13:33:01.569Z,2.05
2023-04-13T13:35:30.305Z,1.80
2023-04-13T13:37:58.323Z,1.90
2023-04-13T13:40:26.458Z,1.70
2023-04-13T13:42:54.570Z,1.42
2023-04-13T13:45:22.618Z,1.73
2023-04-13T13:47:52.722Z,1.52
2023-04-13T13:50:23.845Z,1.27
2023-04-13T13:53:03.318Z,1.27
2023-04-13T13:55:48.440Z,1.20
2023-04-13T13:58:17.782Z,1.33
2023-04-13T14:00:47.397Z,1.40
2023-04-13T14:03:17.919Z,1.10
2023-04-13T14:05:45.862Z,1.45
2023-04-13T14:08:14.854Z,0.95
2023-04-13T14:10:48.819Z,1.42
2023-04-13T14:13:18.179Z,1.48
2023-04-13T14:15:48.100Z,1.10
2023-04-13T14:18:15.926Z,1.23
2023-04-13T14:20:45.698Z,1.05
2023-04-13T14:23:13.517Z,1.00
2023-04-13T14:25:41.517Z,1.30
2023-04-13T14:28:09.646Z,1.60
2023-04-13T14:30:37.290Z,1.67
2023-04-13T14:33:05.997Z,1.65
2023-04-13T14:35:34.525Z,1.30
2023-04-13T14:38:02.254Z,1.50
2023-04-13T14:40:30.187Z,1.30
2023-04-13T14:42:57.873Z,1.50
2023-04-13T14:45:25.536Z,1.63
2023-04-13T14:47:54.411Z,1.63
2023-04-13T14:50:22.151Z,1.30
2023-04-13T14:52:50.493Z,1.55
2023-04-13T14:55:28.215Z,1.52
2023-04-13T14:57:58.422Z,1.33
2023-04-13T15:00:41.045Z,1.35
2023-04-13T15:03:09.722Z,1.83
2023-04-13T15:05:42.639Z,1.17
2023-04-13T15:08:11.996Z,1.60
2023-04-13T15:10:50.211Z,1.60
2023-04-13T15:13:21.411Z,1.50
2023-04-13T15:15:52.132Z,1.48
2023-04-13T15:18:19.871Z,1.58
2023-04-13T15:20:48.959Z,1.70
2023-04-13T15:23:20.061Z,1.73
2023-04-13T15:25:52.774Z,1.73
2023-04-13T15:28:20.999Z,1.85
2023-04-13T15:30:52.246Z,1.55
2023-04-13T15:33:20.834Z,2.00
2023-04-13T15:35:50.637Z,1.85
2023-04-13T15:38:19.934Z,1.85
2023-04-13T15:40:49.290Z,1.80
2023-04-13T15:43:17.281Z,1.50
2023-04-13T15:45:47.463Z,1.58
2023-04-13T15:48:15.960Z,1.77
2023-04-13T15:50:49.368Z,1.73
2023-04-13T15:53:17.286Z,1.90
2023-04-13T15:55:44.876Z,1.33
2023-04-13T15:58:14.357Z,1.85
2023-04-13T16:00:46.969Z,1.40
2023-04-13T16:03:20.379Z,1.10
2023-04-13T16:05:49.543Z,2.30
2023-04-13T16:08:19.291Z,1.63
2023-04-13T16:10:48.597Z,1.80
2023-04-13T16:13:19.825Z,1.30
2023-04-13T16:15:53.316Z,1.73
2023-04-13T16:18:22.012Z,2.00
2023-04-13T16:20:49.784Z,1.83
2023-04-13T16:23:19.419Z,1.55
2023-04-13T16:25:47.331Z,1.67
2023-04-13T16:28:14.916Z,1.77
2023-04-13T16:30:45.249Z,1.70
2023-04-13T16:33:12.766Z,1.42
2023-04-13T16:35:41.111Z,1.40
2023-04-13T16:38:08.656Z,1.48
2023-04-13T16:40:36.514Z,1.73
2023-04-13T16:43:05.810Z,1.83
2023-04-13T16:45:34.494Z,1.17
2023-04-13T16:48:02.538Z,1.60
2023-04-13T16:50:31.963Z,1.58
2023-04-13T16:53:00.518Z,1.35
2023-04-13T16:55:28.851Z,1.73
2023-04-13T16:57:57.850Z,1.60
2023-04-13T17:00:27.155Z,1.70
2023-04-13T17:02:54.899Z,1.63
2023-04-13T17:05:26.794Z,1.20
2023-04-13T17:07:54.709Z,1.50
2023-04-13T17:10:23.361Z,1.40
2023-04-13T17:12:50.931Z,1.65
2023-04-13T17:15:21.948Z,1.27
2023-04-13T17:17:51.360Z,1.40
2023-04-13T17:20:23.298Z,1.30
2023-04-13T17:22:51.677Z,1.35
2023-04-13T17:25:19.793Z,1.50
2023-04-13T17:27:53.278Z,1.33
2023-04-13T17:30:24.248Z,1.42
2023-04-13T17:32:54.765Z,1.65
2023-04-13T17:35:22.781Z,1.30
2023-04-13T17:37:50.942Z,1.90
2023-04-13T17:40:20.727Z,2.17
2023-04-13T17:42:49.423Z,1.45
2023-04-13T17:45:18.875Z,1.50
2023-04-13T17:47:49.019Z,1.48
2023-04-13T17:50:19.616Z,1.40
2023-04-13T17:55:18.794Z,1.67
2023-04-13T17:57:49.795Z,1.35
2023-04-13T18:00:18.806Z,1.30
2023-04-13T18:02:49.646Z,1.75
2023-04-13T18:05:18.939Z,1.42
2023-04-13T18:07:47.247Z,1.55
2023-04-13T18:10:15.152Z,1.20
2023-04-13T18:12:43.915Z,1.50
2023-04-13T18:15:11.475Z,2.22
2023-04-13T18:17:39.508Z,1.50
2023-04-13T18:20:09.165Z,1.42
2023-04-13T18:22:37.424Z,1.20
2023-04-13T18:25:06.628Z,1.50
2023-04-13T18:27:35.006Z,1.60
2023-04-13T18:30:02.913Z,1.20
2023-04-13T18:32:34.590Z,1.63
2023-04-13T18:35:04.238Z,1.40
2023-04-13T18:37:32.609Z,1.40
2023-04-13T18:40:00.037Z,1.60
2023-04-13T18:42:37.183Z,1.60
2023-04-13T18:45:18.362Z,1.50
2023-04-13T18:47:47.217Z,1.30
2023-04-13T18:50:14.745Z,1.50
2023-04-13T18:52:42.313Z,1.52
2023-04-13T18:55:10.175Z,1.13
2023-04-13T18:57:42.126Z,1.33
2023-04-13T19:00:13.817Z,1.50
2023-04-13T19:02:44.145Z,1.48
2023-04-13T19:07:42.831Z,1.63
2023-04-13T19:10:11.607Z,1.80
2023-04-13T19:12:39.239Z,1.13
2023-04-13T19:15:07.529Z,1.58
2023-04-13T19:17:35.958Z,1.40
2023-04-13T19:20:06.396Z,1.88
2023-04-13T19:22:36.579Z,1.65
2023-04-13T19:25:14.421Z,1.67
2023-04-13T19:27:53.366Z,1.38
2023-04-13T19:30:21.021Z,1.00
2023-04-13T19:32:49.830Z,1.42
2023-04-13T19:35:24.554Z,1.13
2023-04-13T19:37:52.310Z,1.20
2023-04-13T19:40:23.193Z,1.23
2023-04-13T19:42:51.173Z,1.35
2023-04-13T19:45:19.863Z,1.60
2023-04-13T19:47:51.535Z,1.35
2023-04-13T19:50:19.662Z,1.90
2023-04-13T19:52:50.983Z,1.63
2023-04-13T19:55:21.152Z,1.55
2023-04-13T19:57:56.732Z,1.70
2023-04-13T20:00:25.474Z,1.88
2023-04-13T20:02:58.670Z,1.58
2023-04-13T20:05:26.781Z,1.40
2023-04-13T20:07:54.656Z,2.50
2023-04-13T20:10:22.621Z,2.50
2023-04-13T20:12:50.506Z,2.10
2023-04-13T20:15:24.685Z,2.25
2023-04-13T20:17:52.967Z,2.22
2023-04-13T20:20:23.277Z,2.20
2023-04-13T20:22:51.990Z,2.60
2023-04-13T20:25:21.247Z,2.85
2023-04-13T20:27:50.978Z,2.38
2023-04-13T20:30:23.118Z,2.30
2023-04-13T20:32:50.927Z,1.70
2023-04-13T20:35:23.031Z,2.92
2023-04-13T20:37:54.381Z,1.98
2023-04-13T20:40:27.108Z,2.22
2023-04-13T20:42:55.849Z,1.88
2023-04-13T20:45:23.647Z,1.90
2023-04-13T20:47:53.416Z,2.00
2023-04-13T20:50:24.985Z,1.88
2023-04-13T20:52:56.971Z,1.90
2023-04-13T20:57:52.562Z,1.90
2023-04-13T21:00:23.726Z,2.03
2023-04-13T21:02:53.508Z,2.40
2023-04-13T21:05:22.444Z,2.33
2023-04-13T21:07:52.027Z,2.10
2023-04-13T21:10:21.192Z,2.50
2023-04-13T21:12:49.464Z,2.25
2023-04-13T21:15:20.205Z,2.53
2023-04-13T21:17:49.212Z,1.80
2023-04-13T21:20:20.086Z,2.55
2023-04-13T21:22:48.863Z,2.20
2023-04-13T21:25:17.376Z,1.70
2023-04-13T21:27:45.817Z,2.28
2023-04-13T21:30:15.128Z,2.03
2023-04-13T21:32:42.660Z,1.73
2023-04-13T21:35:10.511Z,1.88
2023-04-13T21:37:38.093Z,2.72
2023-04-13T21:40:06.195Z,2.95
2023-04-13T21:42:33.961Z,2.17
2023-04-13T21:45:01.948Z,2.08
2023-04-13T21:47:29.547Z,1.98
2023-04-13T21:49:57.778Z,2.22
2023-04-13T21:52:25.481Z,1.70
2023-04-13T21:54:52.945Z,2.40
2023-04-13T21:57:20.696Z,1.70
2023-04-13T21:59:49.296Z,1.50
2023-04-13T22:02:17.382Z,1.90
2023-04-13T22:04:45.437Z,2.22
2023-04-13T22:07:13.024Z,1.70
2023-04-13T22:09:40.832Z,2.00
2023-04-13T22:12:10.989Z,1.92
2023-04-13T22:14:38.368Z,2.95
2023-04-13T22:17:06.070Z,2.33
2023-04-13T22:19:34.105Z,2.13
2023-04-13T22:22:01.539Z,2.38
2023-04-13T22:24:29.015Z,2.58
2023-04-13T22:26:56.857Z,2.40
2023-04-13T22:29:24.584Z,2.85
2023-04-13T22:31:52.475Z,2.58
2023-04-13T22:34:20.821Z,2.65
2023-04-13T22:36:49.541Z,2.80
2023-04-13T22:39:17.687Z,2.88
2023-04-13T22:41:45.480Z,3.45
2023-04-13T22:44:13.014Z,2.85
2023-04-13T22:46:40.588Z,3.42
2023-04-13T22:49:08.742Z,3.20
2023-04-13T22:51:40.117Z,2.63
2023-04-13T22:54:07.861Z,1.88
2023-04-13T22:56:35.835Z,2.00
2023-04-13T22:59:03.464Z,2.67
2023-04-13T23:01:31.297Z,2.05
2023-04-13T23:04:00.516Z,1.70
2023-04-13T23:06:28.569Z,2.03
2023-04-13T23:08:56.981Z,1.60
2023-04-13T23:11:24.820Z,2.42
2023-04-13T23:13:55.727Z,2.33
2023-04-13T23:16:24.844Z,2.00
2023-04-13T23:18:53.342Z,2.35
2023-04-13T23:21:21.842Z,2.80
2023-04-13T23:23:50.000Z,2.40
2023-04-13T23:26:18.962Z,2.30
2023-04-13T23:28:56.420Z,2.47
2023-04-13T23:31:25.919Z,2.67
2023-04-13T23:33:54.954Z,2.47
2023-04-13T23:36:22.840Z,2.53
2023-04-13T23:38:51.072Z,2.00
2023-04-13T23:41:26.455Z,3.30
2023-04-13T23:43:57.343Z,2.40
2023-04-13T23:46:25.370Z,2.38
2023-04-13T23:48:53.208Z,1.95
2023-04-13T23:51:20.871Z,2.25
2023-04-13T23:53:51.678Z,2.78
2023-04-13T23:56:19.631Z,2.85
2023-04-13T23:58:48.005Z,3.05
